Time;durP1;ratioP1;P1;durP2;ratioP2;P2;SDS_P1;SDS_P2;PMS_P1;PMS_P2;Temp;Humidity;BMP_temperature;BMP_pressure;BME280_temperature;BME280_humidity;BME280_pressure;Samples;Min_cycle;Max_cycle;Signal;HPM_P1;HPM_P2
2022/02/08 00:00:26;;;;;;;10.53;3.60;;;;;;;3.67;78.98;101685.00;5047381;28;20204;-71
2022/02/08 00:02:55;;;;;;;6.60;1.97;;;;;;;3.67;79.36;101690.25;5044515;28;20574;-72
2022/02/08 00:05:25;;;;;;;11.07;2.93;;;;;;;3.68;78.87;101691.13;5047312;28;20348;-72
2022/02/08 00:07:54;;;;;;;6.27;2.60;;;;;;;3.68;79.18;101681.47;5047085;28;20283;-72
2022/02/08 00:10:21;;;;;;;13.90;4.53;;;;;;;3.67;78.67;101679.72;5048438;28;20256;-72
2022/02/08 00:12:48;;;;;;;14.50;4.50;;;;;;;3.64;78.54;101677.16;5048899;28;20210;-72
2022/02/08 00:15:14;;;;;;;19.90;6.10;;;;;;;3.65;78.55;101680.66;5049249;28;20226;-71
2022/02/08 00:17:41;;;;;;;5.83;2.23;;;;;;;3.65;78.54;101689.41;5047774;28;20236;-71
2022/02/08 00:20:11;;;;;;;6.87;2.13;;;;;;;3.64;77.96;101677.16;5049869;28;20208;-72
2022/02/08 00:22:39;;;;;;;5.27;1.80;;;;;;;3.66;78.51;101669.22;5048658;28;20229;-72
2022/02/08 00:25:07;;;;;;;6.50;1.77;;;;;;;3.69;77.61;101682.34;5046239;28;20251;-71
2022/02/08 00:27:34;;;;;;;5.80;1.80;;;;;;;3.69;78.31;101662.13;5048213;28;20237;-72
2022/02/08 00:30:01;;;;;;;6.30;1.83;;;;;;;3.70;78.33;101661.22;5049653;28;20205;-72
2022/02/08 00:32:27;;;;;;;7.27;2.03;;;;;;;3.72;78.16;101672.63;5048558;28;20202;-70
2022/02/08 00:34:54;;;;;;;5.07;1.50;;;;;;;3.74;77.59;101659.41;5049265;28;20229;-72
2022/02/08 00:37:20;;;;;;;6.30;1.70;;;;;;;3.75;78.05;101661.16;5050011;28;20206;-72
2022/02/08 00:39:48;;;;;;;6.07;1.63;;;;;;;3.75;78.14;101662.03;5047997;28;20769;-72
2022/02/08 00:42:15;;;;;;;7.17;1.60;;;;;;;3.77;78.00;101654.94;5049118;28;20221;-72
2022/02/08 00:44:46;;;;;;;6.67;1.83;;;;;;;3.78;78.55;101655.78;5047867;28;20256;-72
2022/02/08 00:47:24;;;;;;;9.93;2.23;;;;;;;3.79;78.02;101655.78;5049995;28;20678;-72
2022/02/08 00:49:51;;;;;;;6.17;2.37;;;;;;;3.80;77.91;101660.16;5047515;28;20666;-72
2022/02/08 00:52:18;;;;;;;12.60;2.00;;;;;;;3.82;78.51;101662.75;5049640;28;20201;-72
2022/02/08 00:54:45;;;;;;;6.13;1.80;;;;;;;3.85;77.83;101652.16;5048176;28;20604;-72
2022/02/08 00:57:14;;;;;;;6.83;2.43;;;;;;;3.86;77.80;101648.63;5047513;28;20227;-71
2022/02/08 00:59:41;;;;;;;8.37;2.53;;;;;;;3.88;78.19;101644.19;5049117;28;20344;-72
2022/02/08 01:02:08;;;;;;;6.37;2.20;;;;;;;3.90;77.77;101647.69;5047523;28;20312;-72
2022/02/08 01:04:35;;;;;;;8.17;2.73;;;;;;;3.90;78.21;101650.31;5069265;22;20233;-71
2022/02/08 01:07:02;;;;;;;5.23;2.50;;;;;;;3.93;78.26;101647.63;5014378;28;20222;-71
2022/02/08 01:09:41;;;;;;;12.60;3.20;;;;;;;3.95;77.61;101647.56;5010634;28;20565;-71
2022/02/08 01:12:09;;;;;;;5.17;2.50;;;;;;;3.96;77.99;101657.19;5022558;28;21024;-71
2022/02/08 01:14:39;;;;;;;9.27;3.73;;;;;;;3.98;77.77;101643.09;5014420;28;20209;-71
2022/02/08 01:17:07;;;;;;;7.33;3.33;;;;;;;4.01;77.63;101643.03;5009657;28;20244;-70
2022/02/08 01:19:35;;;;;;;10.07;3.30;;;;;;;4.02;77.83;101654.44;5015120;28;20680;-71
2022/02/08 01:22:02;;;;;;;9.53;4.07;;;;;;;4.04;77.87;101645.63;5013825;28;20233;-70
2022/02/08 01:24:28;;;;;;;12.53;3.90;;;;;;;4.06;78.09;101649.09;5016587;28;20687;-72
2022/02/08 01:27:01;;;;;;;5.73;3.43;;;;;;;4.09;77.96;101661.34;5017591;28;20202;-72
2022/02/08 01:29:37;;;;;;;10.70;4.00;;;;;;;4.10;77.62;101652.53;5019256;28;20202;-72
2022/02/08 01:32:20;;;;;;;9.17;3.50;;;;;;;4.13;77.83;101650.69;5010387;28;20717;-71
2022/02/08 01:35:00;;;;;;;12.60;4.03;;;;;;;4.16;77.53;101652.41;5021593;28;20306;-70
2022/02/08 01:37:40;;;;;;;12.03;4.47;;;;;;;4.16;77.40;101653.25;5019069;28;20206;-71
2022/02/08 01:40:16;;;;;;;11.90;4.33;;;;;;;4.18;77.15;101645.31;5010425;28;20285;-71
2022/02/08 01:42:56;;;;;;;11.83;4.00;;;;;;;4.21;77.52;101649.66;5010859;28;20292;-72
2022/02/08 01:45:42;;;;;;;8.10;4.20;;;;;;;4.22;77.19;101639.09;5015206;28;20241;-72
2022/02/08 01:48:11;;;;;;;10.37;4.50;;;;;;;4.23;76.81;101632.91;5016123;28;20213;-71
2022/02/08 01:50:39;;;;;;;9.17;4.63;;;;;;;4.26;76.90;101632.00;5012591;28;20295;-71
2022/02/08 01:53:08;;;;;;;9.57;4.47;;;;;;;4.26;77.40;101627.59;5012516;28;20293;-71
2022/02/08 01:55:35;;;;;;;12.30;4.60;;;;;;;4.29;76.88;101624.03;5020253;28;20285;-72
2022/02/08 01:58:02;;;;;;;12.53;4.33;;;;;;;4.28;77.58;101617.00;5019498;28;20215;-72
2022/02/08 02:00:30;;;;;;;10.47;4.17;;;;;;;4.29;77.13;101616.09;5025558;28;20210;-71
2022/02/08 02:02:56;;;;;;;10.50;4.80;;;;;;;4.33;77.03;101617.75;5030255;28;20230;-72
2022/02/08 02:05:24;;;;;;;10.07;4.37;;;;;;;4.35;77.44;101616.81;5022779;28;20234;-70
2022/02/08 02:07:51;;;;;;;9.40;4.53;;;;;;;4.41;77.07;101614.06;5012338;28;20584;-72
2022/02/08 02:10:19;;;;;;;10.13;4.03;;;;;;;4.44;77.47;101602.56;5024795;28;20305;-70
2022/02/08 02:12:53;;;;;;;10.67;4.03;;;;;;;4.46;77.04;101604.28;5029115;28;20293;-71
2022/02/08 02:15:20;;;;;;;11.60;4.00;;;;;;;4.48;77.28;101601.56;5020873;28;20536;-71
2022/02/08 02:17:47;;;;;;;10.87;3.90;;;;;;;4.51;77.02;101602.38;5012669;28;20219;-72
2022/02/08 02:20:14;;;;;;;10.67;4.07;;;;;;;4.54;77.46;101602.31;5023859;28;20220;-71
2022/02/08 02:22:42;;;;;;;8.53;3.80;;;;;;;4.56;77.39;101607.56;5026086;28;20512;-72
2022/02/08 02:25:19;;;;;;;11.03;4.20;;;;;;;4.58;77.26;101596.97;5021792;28;20633;-72
2022/02/08 02:27:46;;;;;;;11.97;4.67;;;;;;;4.61;77.36;101586.34;5014599;28;20214;-71
2022/02/08 02:30:13;;;;;;;9.73;4.10;;;;;;;4.65;77.21;101590.66;5030308;28;20214;-72
2022/02/08 02:32:40;;;;;;;7.50;3.77;;;;;;;4.67;77.11;101588.81;5029762;28;20206;-70
2022/02/08 02:35:07;;;;;;;7.17;3.87;;;;;;;4.68;77.47;101586.16;5016868;28;20230;-71
2022/02/08 02:37:33;;;;;;;10.47;3.43;;;;;;;4.69;77.43;101595.81;5029901;28;20285;-72
2022/02/08 02:40:00;;;;;;;13.50;3.70;;;;;;;4.71;77.41;101591.34;5028205;28;20223;-71
2022/02/08 02:42:29;;;;;;;11.27;4.00;;;;;;;4.73;77.69;101599.25;5028932;28;20226;-71
2022/02/08 02:44:56;;;;;;;10.57;3.50;;;;;;;4.74;77.81;101586.00;5027143;28;20316;-72
2022/02/08 02:47:24;;;;;;;11.30;3.33;;;;;;;4.76;77.61;101584.19;5026869;28;20206;-70
2022/02/08 02:49:50;;;;;;;11.33;3.30;;;;;;;4.77;77.63;101580.66;5025746;28;20215;-71
2022/02/08 02:52:17;;;;;;;9.83;2.80;;;;;;;4.79;78.06;101585.91;5023818;28;20205;-70
2022/02/08 02:54:43;;;;;;;7.97;3.20;;;;;;;4.84;77.75;101599.84;5031219;28;20723;-70
2022/02/08 02:57:12;;;;;;;10.47;2.90;;;;;;;4.85;77.83;101589.25;5028144;28;20230;-71
2022/02/08 02:59:41;;;;;;;11.63;3.60;;;;;;;4.86;78.07;101600.66;5020646;28;20223;-71
2022/02/08 03:04:57;;;;;;;8.73;3.33;;;;;;;4.87;78.07;101590.06;5011329;28;20738;-71
2022/02/08 03:18:39;;;;;;;9.97;3.47;;;;;;;4.96;78.59;101588.13;5004181;28;20236;-70
2022/02/08 03:21:07;;;;;;;12.97;3.30;;;;;;;4.94;78.85;101580.25;5023459;28;20210;-71
2022/02/08 03:23:34;;;;;;;6.63;3.23;;;;;;;4.96;79.31;101580.19;5019283;28;20241;-71
2022/02/08 03:26:01;;;;;;;13.87;3.70;;;;;;;4.99;79.71;101572.22;5024859;28;20257;-71
2022/02/08 03:28:28;;;;;;;8.03;3.13;;;;;;;4.99;79.81;101566.94;5026538;28;20203;-71
2022/02/08 03:30:56;;;;;;;8.23;3.20;;;;;;;5.01;80.40;101584.47;5027648;28;20203;-70
2022/02/08 03:33:25;;;;;;;9.63;3.40;;;;;;;5.00;80.73;101576.59;5022929;28;20207;-71
2022/02/08 03:35:54;;;;;;;8.20;3.60;;;;;;;4.98;80.96;101578.41;5024176;28;20747;-70
2022/02/08 03:38:27;;;;;;;9.90;3.70;;;;;;;4.99;81.61;101570.44;5024673;28;20668;-71
2022/02/08 03:40:54;;;;;;;10.33;4.10;;;;;;;4.98;82.04;101565.19;5026042;28;20210;-70
2022/02/08 03:43:30;;;;;;;11.03;3.43;;;;;;;4.97;82.05;101572.25;5023409;28;20225;-71
2022/02/08 03:46:01;;;;;;;13.17;4.47;;;;;;;4.95;82.58;101571.41;5024872;28;20288;-70
2022/02/08 03:48:31;;;;;;;17.70;3.80;;;;;;;4.94;82.81;101559.13;5021316;28;20679;-71
2022/02/08 03:51:07;;;;;;;8.30;2.83;;;;;;;4.99;83.13;101545.81;5015238;28;20207;-71
2022/02/08 03:53:33;;;;;;;8.50;3.43;;;;;;;4.98;83.42;101566.06;5019730;28;20198;-71
2022/02/08 03:56:00;;;;;;;6.17;3.33;;;;;;;4.95;84.20;101563.50;5026875;28;20230;-70
2022/02/08 03:58:27;;;;;;;7.90;3.57;;;;;;;4.96;84.20;101557.31;5027905;28;20210;-70
2022/02/08 04:01:09;;;;;;;5.40;2.33;;;;;;;4.95;84.53;101558.22;5028694;28;20213;-71
2022/02/08 04:03:44;;;;;;;9.13;3.07;;;;;;;4.92;84.85;101552.13;5014283;28;20707;-71
2022/02/08 04:06:11;;;;;;;7.00;3.40;;;;;;;4.91;85.04;101560.97;5026275;28;20319;-71
2022/02/08 04:08:37;;;;;;;7.03;3.03;;;;;;;4.89;85.43;101561.00;5030026;28;20300;-71
2022/02/08 04:11:04;;;;;;;8.67;4.00;;;;;;;4.88;85.55;101557.50;5029039;28;20675;-71
2022/02/08 04:13:37;;;;;;;7.80;3.53;;;;;;;4.88;86.18;101560.13;5019909;28;20217;-71
2022/02/08 04:16:09;;;;;;;10.87;3.47;;;;;;;4.86;86.71;101556.66;5009915;28;20719;-71
2022/02/08 04:32:25;;;;;;;6.20;2.83;;;;;;;4.86;87.88;101525.00;5023029;28;20229;-71
2022/02/08 04:35:03;;;;;;;5.83;2.93;;;;;;;4.90;87.63;101533.69;5025269;28;20257;-71
2022/02/08 04:37:55;;;;;;;4.37;2.90;;;;;;;4.94;87.69;101521.28;5016888;28;20268;-71
2022/02/08 04:45:54;;;;;;;3.53;2.97;;;;;;;4.97;87.82;101523.84;5019471;28;20309;-71
2022/02/08 04:48:32;;;;;;;5.10;2.90;;;;;;;4.97;88.08;101523.84;5019189;28;20207;-71
2022/02/08 04:51:11;;;;;;;3.77;3.00;;;;;;;4.97;88.25;101527.38;5017938;28;20261;-71
2022/02/08 04:53:44;;;;;;;4.23;3.33;;;;;;;4.99;88.28;101520.28;5020318;28;20201;-71
2022/02/08 04:56:18;;;;;;;5.60;3.13;;;;;;;5.00;88.19;101516.72;5018197;28;20295;-71
2022/02/08 04:58:51;;;;;;;5.30;3.77;;;;;;;5.02;88.39;101504.34;5017733;28;20210;-71
2022/02/08 05:01:22;;;;;;;6.43;3.53;;;;;;;5.01;88.70;101518.47;5017298;28;20203;-71
2022/02/08 05:29:29;;;;;;;3.80;3.33;;;;;;;5.05;91.26;101516.59;5020326;28;20214;-71
2022/02/08 05:35:00;;;;;;;3.23;2.63;;;;;;;5.08;91.58;101514.75;5020280;28;20217;-71
2022/02/08 05:37:42;;;;;;;3.40;3.00;;;;;;;5.12;91.47;101510.25;5029965;28;20209;-71
2022/02/08 05:43:11;;;;;;;3.27;2.90;;;;;;;5.13;92.02;101511.97;5021818;28;20230;-71
2022/02/08 05:46:00;;;;;;;5.87;3.50;;;;;;;5.15;91.94;101502.25;5021141;28;20714;-71
2022/02/08 05:48:29;;;;;;;4.10;3.13;;;;;;;5.16;91.65;101512.78;5023008;28;20221;-71
2022/02/08 05:50:59;;;;;;;3.07;2.50;;;;;;;5.18;92.44;101499.53;5025897;28;20272;-70
2022/02/08 05:53:31;;;;;;;3.27;2.50;;;;;;;5.20;92.50;101492.41;5025717;28;20199;-71
2022/02/08 05:55:59;;;;;;;3.20;2.90;;;;;;;5.20;92.88;101497.69;5024958;28;20222;-71
2022/02/08 05:58:26;;;;;;;3.50;2.80;;;;;;;5.19;93.18;101495.97;5027170;28;20202;-71
2022/02/08 06:00:53;;;;;;;4.33;2.83;;;;;;;5.22;93.25;101495.88;5025613;28;20214;-71
2022/02/08 06:03:19;;;;;;;3.40;2.73;;;;;;;5.22;93.17;101487.94;5023864;28;20230;-71
2022/02/08 06:05:48;;;;;;;4.90;2.40;;;;;;;5.26;93.59;101486.97;5020855;28;20361;-71
2022/02/08 06:08:15;;;;;;;2.83;2.63;;;;;;;5.25;93.46;101490.50;5029144;28;20210;-71
2022/02/08 06:10:48;;;;;;;4.90;2.40;;;;;;;5.26;93.99;101486.97;5029717;28;20220;-71
2022/02/08 06:13:17;;;;;;;3.13;2.43;;;;;;;5.30;93.94;101487.75;5021202;28;20207;-71
2022/02/08 06:15:46;;;;;;;2.93;2.63;;;;;;;5.30;93.79;101478.03;5024855;28;20321;-71
2022/02/08 06:18:12;;;;;;;2.40;2.17;;;;;;;5.33;93.99;101482.38;5021948;28;20294;-71
2022/02/08 06:20:39;;;;;;;2.60;2.20;;;;;;;5.35;94.12;101484.06;5018963;28;20230;-71
2022/02/08 06:23:06;;;;;;;3.33;2.20;;;;;;;5.34;94.62;101490.25;5026222;28;20730;-72
2022/02/08 06:25:35;;;;;;;3.33;2.03;;;;;;;5.37;94.30;101476.97;5016604;28;20237;-71
2022/02/08 06:28:02;;;;;;;2.27;2.00;;;;;;;5.40;94.42;101466.28;5028539;28;20593;-72
2022/02/08 06:30:30;;;;;;;2.93;2.63;;;;;;;5.41;94.52;101472.44;5022923;28;20218;-72
2022/02/08 06:32:57;;;;;;;2.77;2.30;;;;;;;5.42;94.56;101468.91;5020670;28;20221;-71
2022/02/08 06:35:26;;;;;;;3.07;2.13;;;;;;;5.46;94.81;101478.47;5022825;28;20222;-71
2022/02/08 06:37:54;;;;;;;3.10;2.80;;;;;;;5.47;94.39;101480.19;5019043;28;20270;-71
2022/02/08 06:40:21;;;;;;;4.43;3.13;;;;;;;5.48;95.15;101479.28;5024890;28;20376;-71
2022/02/08 06:42:48;;;;;;;3.80;3.33;;;;;;;5.50;95.06;101470.41;5024513;28;20212;-71
2022/02/08 06:45:16;;;;;;;4.63;3.77;;;;;;;5.56;94.97;101467.56;5028622;28;20261;-71
2022/02/08 06:47:50;;;;;;;5.20;3.80;;;;;;;5.61;94.79;101466.56;5023832;28;20206;-71
2022/02/08 06:50:17;;;;;;;5.33;4.27;;;;;;;5.65;95.29;101481.44;5023136;28;20199;-71
2022/02/08 06:52:43;;;;;;;6.93;5.13;;;;;;;5.65;95.49;101502.56;5020174;28;20208;-71
2022/02/08 06:55:10;;;;;;;5.87;5.07;;;;;;;5.70;95.27;101498.91;5019745;28;20229;-71
2022/02/08 06:57:49;;;;;;;7.43;5.93;;;;;;;5.74;95.70;101502.28;5025459;28;20205;-71
2022/02/08 07:00:21;;;;;;;7.50;6.13;;;;;;;5.78;95.49;101499.53;5022693;28;20203;-71
2022/02/08 07:02:50;;;;;;;8.67;5.83;;;;;;;5.83;95.49;101488.81;5017910;28;20741;-71
2022/02/08 07:05:16;;;;;;;8.57;6.37;;;;;;;5.87;95.59;101501.03;5018621;28;20234;-71
2022/02/08 07:07:43;;;;;;;10.53;6.80;;;;;;;5.88;95.23;101503.66;5024569;28;20661;-71
2022/02/08 07:10:10;;;;;;;11.10;8.10;;;;;;;5.91;95.17;101515.94;5017950;28;20205;-71
2022/02/08 07:12:37;;;;;;;11.67;7.80;;;;;;;5.94;95.68;101513.16;5018280;28;20218;-70
2022/02/08 07:15:09;;;;;;;10.30;7.70;;;;;;;6.00;95.29;101522.69;5016420;28;20215;-71
2022/02/08 07:17:36;;;;;;;13.47;8.90;;;;;;;6.00;95.38;101526.22;5016880;28;20286;-71
2022/02/08 07:20:05;;;;;;;11.13;9.57;;;;;;;6.03;95.43;101530.53;5014486;28;20195;-71
2022/02/08 07:22:32;;;;;;;13.13;8.93;;;;;;;6.05;95.38;101526.09;5012836;28;20202;-70
2022/02/08 07:24:58;;;;;;;12.30;9.43;;;;;;;6.07;95.20;101535.69;5021178;28;20243;-71
2022/02/08 07:27:25;;;;;;;11.87;8.93;;;;;;;6.10;95.58;101537.34;5019873;28;20628;-71
2022/02/08 07:29:53;;;;;;;13.57;10.90;;;;;;;6.12;95.03;101539.03;5021248;28;20206;-70
2022/02/08 07:32:27;;;;;;;14.87;9.87;;;;;;;6.14;94.87;101533.72;5017016;28;20580;-71
2022/02/08 07:35:06;;;;;;;14.20;11.00;;;;;;;6.16;95.61;101534.53;5025616;28;20221;-71
2022/02/08 07:37:45;;;;;;;14.90;10.27;;;;;;;6.17;95.73;101531.84;5018407;28;20202;-70
2022/02/08 07:40:16;;;;;;;17.17;11.67;;;;;;;6.20;95.35;101534.41;5019340;28;20210;-71
2022/02/08 07:42:43;;;;;;;16.20;11.43;;;;;;;6.22;95.26;101537.88;5023004;28;20654;-71
2022/02/08 07:45:11;;;;;;;14.47;10.37;;;;;;;6.24;95.65;101536.03;5013854;28;20237;-71
2022/02/08 07:47:37;;;;;;;17.87;11.70;;;;;;;6.27;95.67;101535.91;5016592;28;20206;-71
2022/02/08 07:50:04;;;;;;;17.53;12.23;;;;;;;6.31;95.04;101538.47;5024408;28;20723;-70
2022/02/08 07:52:31;;;;;;;18.33;12.20;;;;;;;6.33;95.65;101532.22;5025936;28;20210;-71
2022/02/08 07:54:59;;;;;;;18.17;12.80;;;;;;;6.34;95.73;101523.38;5019460;28;20222;-70
2022/02/08 07:57:25;;;;;;;18.70;13.37;;;;;;;6.34;95.69;101528.66;5020047;28;20202;-71
2022/02/08 07:59:52;;;;;;;21.80;14.00;;;;;;;6.37;95.99;101551.53;5023439;28;20229;-71
2022/02/08 08:02:18;;;;;;;20.37;14.67;;;;;;;6.37;95.77;101531.22;5023691;28;20257;-71
2022/02/08 08:04:45;;;;;;;18.40;13.33;;;;;;;6.41;95.59;101519.63;5017703;28;20730;-70
2022/02/08 08:07:11;;;;;;;20.50;13.10;;;;;;;6.44;95.70;101510.72;5020319;28;20199;-71
2022/02/08 08:09:40;;;;;;;22.50;13.50;;;;;;;6.45;95.66;101515.94;5017156;28;20577;-70
2022/02/08 08:12:12;;;;;;;25.33;14.80;;;;;;;6.46;95.61;101512.38;5024900;28;20293;-70
2022/02/08 08:14:39;;;;;;;23.00;14.97;;;;;;;6.49;95.88;101499.06;5029914;28;20266;-70
2022/02/08 08:17:35;;;;;;;22.20;13.80;;;;;;;6.51;95.92;101506.94;5026626;28;20203;-70
2022/02/08 08:19:59;;;;;;;24.50;14.40;;;;;;;6.54;95.48;101512.16;5025591;28;20613;-70
2022/02/08 08:22:25;;;;;;;22.57;14.20;;;;;;;6.56;95.49;101512.97;5025084;28;20215;-71
2022/02/08 08:24:52;;;;;;;24.10;12.67;;;;;;;6.59;95.91;101512.88;5018302;28;20235;-71
2022/02/08 08:27:20;;;;;;;22.37;14.83;;;;;;;6.60;95.94;101506.66;5014048;28;20209;-71
2022/02/08 08:29:46;;;;;;;24.23;14.63;;;;;;;6.61;96.28;101511.03;5019616;28;20214;-71
2022/02/08 08:32:13;;;;;;;22.40;13.87;;;;;;;6.66;95.59;101509.09;5016909;28;20198;-71
2022/02/08 08:34:39;;;;;;;24.40;14.07;;;;;;;6.69;96.20;101514.28;5022271;28;20699;-71
2022/02/08 08:37:06;;;;;;;27.43;15.13;;;;;;;6.72;96.02;101511.53;5018686;28;20210;-71
2022/02/08 08:39:39;;;;;;;22.83;14.50;;;;;;;6.74;96.34;101511.50;5015153;28;20213;-71
2022/02/08 08:42:19;;;;;;;25.63;15.87;;;;;;;6.78;96.36;101508.69;5016509;28;20215;-71
2022/02/08 08:50:30;;;;;;;23.93;14.10;;;;;;;6.89;96.03;101527.72;5016018;28;20255;-71
2022/02/08 08:52:58;;;;;;;22.27;14.57;;;;;;;6.91;95.17;101531.19;5017959;28;20217;-72
2022/02/08 08:55:24;;;;;;;25.57;15.07;;;;;;;6.96;95.31;101523.94;5020995;28;20226;-71
2022/02/08 08:57:51;;;;;;;23.50;14.53;;;;;;;7.03;95.07;101524.59;5029808;28;20654;-71
2022/02/08 09:00:19;;;;;;;20.93;13.83;;;;;;;7.10;94.89;101520.81;5023882;28;20233;-70
2022/02/08 09:02:46;;;;;;;22.00;13.83;;;;;;;7.17;94.64;101521.44;5012286;28;20219;-71
2022/02/08 09:05:14;;;;;;;20.90;14.63;;;;;;;7.20;94.81;101524.00;5013687;28;20242;-71
2022/02/08 09:07:42;;;;;;;25.03;14.93;;;;;;;7.24;95.09;101525.63;5017730;28;20265;-70
2022/02/08 09:10:13;;;;;;;21.43;14.60;;;;;;;7.28;94.74;101530.75;5017899;28;20229;-70
2022/02/08 09:12:57;;;;;;;19.73;13.13;;;;;;;7.34;94.52;101535.00;5020839;28;20285;-70
2022/02/08 09:15:43;;;;;;;24.13;14.27;;;;;;;7.36;93.83;101529.59;5025531;28;20515;-71
2022/02/08 09:18:25;;;;;;;19.63;13.97;;;;;;;7.42;93.09;101530.25;5014338;28;20575;-71
2022/02/08 09:21:25;;;;;;;20.83;14.37;;;;;;;7.45;93.64;101540.75;5020275;28;20289;-71
2022/02/08 09:24:15;;;;;;;22.40;13.43;;;;;;;7.53;92.87;101527.19;5016403;28;20240;-71
2022/02/08 09:29:39;;;;;;;20.30;13.50;;;;;;;7.60;92.37;101532.25;5004654;28;20280;-72
2022/02/08 09:32:14;;;;;;;22.27;14.33;;;;;;;7.65;92.39;101518.81;5015557;28;20206;-71
2022/02/08 09:34:43;;;;;;;21.87;14.10;;;;;;;7.69;92.02;101519.56;5020026;28;20229;-72
2022/02/08 09:37:10;;;;;;;22.50;13.83;;;;;;;7.70;92.06;101516.88;5022025;28;20588;-71
2022/02/08 09:39:37;;;;;;;16.83;12.50;;;;;;;7.75;91.89;101519.31;5015317;28;20211;-71
2022/02/08 09:42:05;;;;;;;22.30;14.10;;;;;;;7.76;91.29;101510.44;5020062;28;20290;-72
2022/02/08 09:44:34;;;;;;;22.37;13.77;;;;;;;7.81;90.84;101511.16;5020532;28;20229;-71
2022/02/08 09:47:01;;;;;;;22.87;14.70;;;;;;;7.85;90.53;101505.69;5016725;28;20243;-71
2022/02/08 09:49:32;;;;;;;21.03;13.00;;;;;;;7.87;90.39;101510.91;5018836;28;20215;-71
2022/02/08 09:52:00;;;;;;;19.73;13.87;;;;;;;7.90;90.45;101502.81;5017878;28;20203;-71
2022/02/08 09:54:27;;;;;;;21.20;14.43;;;;;;;7.93;90.39;101508.00;5022386;28;20287;-71
2022/02/08 09:56:53;;;;;;;19.33;14.23;;;;;;;7.97;90.28;101517.59;5017203;28;20657;-71
2022/02/08 09:59:20;;;;;;;19.53;13.70;;;;;;;8.00;89.68;101515.69;5017240;28;20292;-71
2022/02/08 10:01:54;;;;;;;19.90;13.73;;;;;;;8.04;90.12;101519.09;5020855;28;20293;-71
2022/02/08 10:04:21;;;;;;;24.17;14.67;;;;;;;8.08;89.85;101535.72;5018788;28;20317;-71
2022/02/08 10:06:49;;;;;;;21.93;13.93;;;;;;;8.12;89.83;101540.88;5020513;28;20209;-71
2022/02/08 10:09:16;;;;;;;15.17;12.20;;;;;;;8.14;89.23;101544.31;5024334;28;20203;-70
2022/02/08 10:11:45;;;;;;;18.57;12.43;;;;;;;8.16;89.04;101536.31;5018379;28;20214;-71
2022/02/08 10:14:23;;;;;;;18.37;12.33;;;;;;;8.21;89.48;101532.56;5028868;28;20206;-71
2022/02/08 10:22:50;;;;;;;16.67;13.10;;;;;;;8.26;88.48;101532.34;5029673;28;20206;-71
2022/02/08 10:25:25;;;;;;;18.23;12.90;;;;;;;8.28;88.47;101523.41;5021005;28;20227;-71
2022/02/08 10:28:02;;;;;;;42.13;25.17;;;;;;;8.33;88.40;101526.78;5017431;28;20214;-71
2022/02/08 10:30:57;;;;;;;16.20;13.37;;;;;;;8.35;87.79;101526.72;5017935;28;20206;-71
2022/02/08 10:39:26;;;;;;;13.50;11.80;;;;;;;8.46;88.06;101544.84;4909453;29;20239;-71
2022/02/08 10:41:53;;;;;;;13.47;10.93;;;;;;;8.51;87.54;101533.13;4991602;28;20229;-70
2022/02/08 10:44:20;;;;;;;14.17;12.67;;;;;;;8.52;86.55;101544.63;5018780;28;20199;-71
2022/02/08 10:46:47;;;;;;;12.37;11.17;;;;;;;8.56;86.60;101547.09;5025456;28;20220;-71
2022/02/08 10:49:14;;;;;;;12.10;10.97;;;;;;;8.58;86.98;101560.31;5022380;28;20202;-71
2022/02/08 10:51:47;;;;;;;11.73;10.63;;;;;;;8.56;86.59;101551.56;5020081;28;20213;-71
2022/02/08 10:54:18;;;;;;;12.10;10.07;;;;;;;8.59;86.42;101551.44;5026251;28;20207;-70
2022/02/08 10:56:50;;;;;;;11.80;10.03;;;;;;;8.61;86.37;101547.75;5021554;28;20207;-71
2022/02/08 10:59:24;;;;;;;10.57;9.40;;;;;;;8.62;86.27;101543.31;5019161;28;20217;-71
2022/02/08 11:02:00;;;;;;;14.20;9.63;;;;;;;8.64;85.97;101555.59;5014473;28;20242;-71
2022/02/08 11:04:43;;;;;;;13.80;10.50;;;;;;;8.62;85.34;101533.56;5021943;28;20637;-71
2022/02/08 11:07:18;;;;;;;11.17;9.97;;;;;;;8.67;85.93;101544.84;5012859;28;20211;-71
2022/02/08 11:09:59;;;;;;;13.83;9.80;;;;;;;8.72;85.79;101547.34;5021525;28;20292;-70
2022/02/08 11:12:40;;;;;;;14.13;10.33;;;;;;;8.68;85.04;101541.28;5012756;28;20673;-71
2022/02/08 11:15:24;;;;;;;14.50;12.90;;;;;;;8.68;85.35;101541.28;5031299;28;20707;-71
2022/02/08 11:18:20;;;;;;;12.60;10.33;;;;;;;8.67;85.27;101525.41;5031986;28;20233;-72
2022/02/08 11:20:52;;;;;;;15.90;10.20;;;;;;;8.71;85.56;101524.34;5018275;28;20213;-71
2022/02/08 11:23:25;;;;;;;12.33;11.10;;;;;;;8.74;84.79;101532.19;5027139;28;20199;-71
2022/02/08 11:25:53;;;;;;;12.97;10.43;;;;;;;8.75;85.49;101531.28;5020340;28;20711;-71
2022/02/08 11:28:28;;;;;;;12.63;10.60;;;;;;;8.79;85.44;101538.16;5030370;28;20210;-71
2022/02/08 11:31:07;;;;;;;14.60;10.30;;;;;;;8.81;85.21;101527.47;5020858;28;20210;-71
2022/02/08 11:48:15;;;;;;;11.93;9.67;;;;;;;8.87;84.41;101544.03;4970705;28;20709;-71
2022/02/08 11:53:32;;;;;;;11.97;9.50;;;;;;;8.89;84.73;101555.47;5015838;28;20230;-72
2022/02/08 11:59:03;;;;;;;12.17;10.03;;;;;;;8.92;84.06;101542.06;5015959;28;20289;-72
2022/02/08 12:01:46;;;;;;;13.20;9.90;;;;;;;8.93;84.25;101549.09;5024601;28;20302;-72
2022/02/08 12:04:34;;;;;;;14.00;10.57;;;;;;;8.92;84.65;101554.47;5010564;28;20704;-73
2022/02/08 12:07:08;;;;;;;12.47;10.63;;;;;;;8.90;84.40;101554.53;5022294;28;20211;-72
2022/02/08 12:09:42;;;;;;;13.07;9.50;;;;;;;8.93;84.53;101551.75;5019658;28;20210;-71
2022/02/08 12:31:58;;;;;;;12.63;11.40;;;;;;;8.98;84.34;101527.63;5010317;28;20696;-71
2022/02/08 12:34:45;;;;;;;12.47;11.17;;;;;;;8.97;84.89;101520.59;5018714;28;20244;-71
2022/02/08 12:54:22;;;;;;;15.17;10.33;;;;;;;9.10;84.71;101508.53;4997017;28;20203;-72
2022/02/08 12:56:59;;;;;;;16.03;11.37;;;;;;;9.10;84.86;101494.38;5024031;28;20289;-71
2022/02/08 12:59:46;;;;;;;13.57;9.63;;;;;;;9.15;84.75;101508.28;5011998;28;20293;-71
2022/02/08 13:02:28;;;;;;;13.43;10.03;;;;;;;9.15;84.78;101508.28;5018374;28;20217;-71
2022/02/08 13:05:34;;;;;;;11.50;9.70;;;;;;;9.15;84.53;101508.28;5017973;28;21444;-71
2022/02/08 14:04:20;;;;;;;29.43;20.77;;;;;;;9.27;85.57;101547.66;5020811;28;20340;-72
2022/02/08 14:06:53;;;;;;;21.00;17.17;;;;;;;9.26;85.51;101551.22;5017520;28;20233;-71
2022/02/08 14:09:30;;;;;;;24.47;20.50;;;;;;;9.27;85.61;101534.34;5022548;28;20201;-72
2022/02/08 14:14:51;;;;;;;22.33;16.97;;;;;;;9.28;85.74;101541.41;5025343;28;20237;-72
2022/02/08 14:20:28;;;;;;;20.10;16.70;;;;;;;9.23;86.03;101549.56;5012665;28;20303;-72
2022/02/08 14:23:11;;;;;;;18.63;15.33;;;;;;;9.23;86.16;101551.38;5013020;28;20215;-72
2022/02/08 14:25:49;;;;;;;18.63;16.03;;;;;;;9.22;86.39;101550.50;5028640;28;22220;-72
2022/02/08 14:31:18;;;;;;;23.73;18.30;;;;;;;9.20;86.58;101554.16;5029710;28;20356;-72
2022/02/08 14:34:09;;;;;;;18.30;15.57;;;;;;;9.17;87.63;101546.31;5032556;28;20210;-72
2022/02/08 14:36:53;;;;;;;19.23;16.20;;;;;;;9.17;87.04;101548.97;5012299;28;20230;-72
2022/02/08 15:07:48;;;;;;;22.40;16.90;;;;;;;9.01;90.23;101541.66;5017813;28;20258;-69
2022/02/08 15:10:06;;;;;;;18.43;16.60;;;;;;;9.02;90.29;101548.69;5019319;28;20230;-69
2022/02/08 15:12:40;;;;;;;20.10;15.47;;;;;;;9.04;90.55;101549.50;5014038;28;20207;-69
2022/02/08 15:15:16;;;;;;;17.03;13.73;;;;;;;9.05;90.34;101543.25;5018830;28;20222;-69
2022/02/08 15:17:42;;;;;;;15.67;14.07;;;;;;;9.07;90.63;101558.28;5016694;28;20238;-69
2022/02/08 15:20:12;;;;;;;15.43;13.80;;;;;;;9.07;89.97;101563.59;5017539;28;20199;-69
2022/02/08 15:22:39;;;;;;;16.23;13.57;;;;;;;9.02;90.25;101556.66;5016027;28;20211;-69
2022/02/08 15:25:12;;;;;;;16.03;14.03;;;;;;;9.03;90.46;101558.41;5016327;28;20221;-70
2022/02/08 15:27:39;;;;;;;15.30;13.70;;;;;;;9.02;90.85;101564.63;5012347;28;20210;-69
2022/02/08 15:30:09;;;;;;;18.03;14.27;;;;;;;9.06;90.69;101565.38;5017013;28;20632;-68
2022/02/08 15:32:36;;;;;;;15.83;14.17;;;;;;;9.09;90.85;101564.38;5013095;28;20207;-69
2022/02/08 15:35:03;;;;;;;15.30;12.73;;;;;;;9.08;90.79;101565.31;5018255;28;20233;-69
2022/02/08 15:37:31;;;;;;;15.23;12.77;;;;;;;9.09;90.80;101559.06;5014506;28;20204;-69